Time;durP1;ratioP1;P1;durP2;ratioP2;P2;SDS_P1;SDS_P2;PMS_P1;PMS_P2;Temp;Humidity;BMP_temperature;BMP_pressure;BME280_temperature;BME280_humidity;BME280_pressure;Samples;Min_cycle;Max_cycle;Signal;HPM_P1;HPM_P2
2023/12/05 00:01:20;;;;;;;27.52;18.08;;;;;;;1.47;100.00;99818.81;5067668;28;20029;-53
2023/12/05 00:03:50;;;;;;;24.40;17.27;;;;;;;1.49;100.00;99817.84;5069214;28;20476;-52
2023/12/05 00:06:18;;;;;;;26.40;17.30;;;;;;;1.49;100.00;99817.03;5068143;28;20052;-53
2023/12/05 00:08:46;;;;;;;25.42;17.83;;;;;;;1.48;100.00;99818.75;5067909;28;20123;-52
2023/12/05 00:11:14;;;;;;;25.90;17.88;;;;;;;1.45;100.00;99811.13;5066565;28;20490;-52
2023/12/05 00:13:43;;;;;;;26.85;18.52;;;;;;;1.44;100.00;99806.00;5068907;28;20055;-52
2023/12/05 00:16:11;;;;;;;24.50;17.75;;;;;;;1.45;100.00;99812.88;5067984;28;20488;-54
2023/12/05 00:18:39;;;;;;;27.58;17.58;;;;;;;1.46;100.00;99810.22;5067048;28;20637;-52
2023/12/05 00:21:09;;;;;;;27.23;18.70;;;;;;;1.41;100.00;99806.97;5067276;28;20068;-53
2023/12/05 00:23:37;;;;;;;26.60;18.30;;;;;;;1.49;100.00;99811.84;5067450;28;20044;-53
2023/12/05 00:26:05;;;;;;;25.85;17.60;;;;;;;1.44;100.00;99817.19;5066616;28;20040;-54
2023/12/05 00:28:33;;;;;;;25.90;17.58;;;;;;;1.47;100.00;99811.91;5070504;28;20044;-51
2023/12/05 00:31:01;;;;;;;24.80;17.75;;;;;;;1.47;100.00;99814.50;5068153;28;20735;-52
2023/12/05 00:33:30;;;;;;;26.15;17.67;;;;;;;1.44;100.00;99808.59;5067342;28;20078;-54
2023/12/05 00:35:58;;;;;;;26.13;18.00;;;;;;;1.44;100.00;99809.44;5068916;28;20487;-52
2023/12/05 00:38:28;;;;;;;24.85;17.33;;;;;;;1.46;100.00;99797.25;5071195;28;20118;-53
2023/12/05 00:40:59;;;;;;;24.88;16.98;;;;;;;1.42;100.00;99800.91;5073882;28;20048;-52
2023/12/05 00:43:27;;;;;;;26.10;18.08;;;;;;;1.42;100.00;99795.72;5072306;28;20055;-53
2023/12/05 00:45:56;;;;;;;24.02;16.73;;;;;;;1.44;100.00;99799.06;5072761;28;20062;-53
2023/12/05 00:48:24;;;;;;;24.75;17.38;;;;;;;1.50;100.00;99797.94;5070537;28;20412;-52
2023/12/05 00:50:53;;;;;;;25.58;17.77;;;;;;;1.50;100.00;99792.75;5073806;28;20044;-52
2023/12/05 00:53:21;;;;;;;24.15;16.45;;;;;;;1.46;100.00;99794.66;5072510;28;20586;-50
2023/12/05 00:55:50;;;;;;;26.23;16.95;;;;;;;1.50;100.00;99783.25;5073951;28;20072;-54
2023/12/05 00:58:19;;;;;;;26.58;17.27;;;;;;;1.51;100.00;99789.28;5074267;28;20080;-53
2023/12/05 01:00:47;;;;;;;27.40;17.27;;;;;;;1.44;100.00;99791.28;5068695;28;20729;-53
2023/12/05 01:03:15;;;;;;;26.48;18.58;;;;;;;1.47;100.00;99788.59;5070184;28;20059;-52
2023/12/05 01:05:47;;;;;;;28.25;17.77;;;;;;;1.46;100.00;99791.22;5072200;28;20037;-53
2023/12/05 01:08:16;;;;;;;28.38;18.85;;;;;;;1.42;100.00;99790.53;5072117;28;20041;-53
2023/12/05 01:10:44;;;;;;;27.98;18.88;;;;;;;1.42;100.00;99795.72;5070355;28;20470;-51
2023/12/05 01:13:13;;;;;;;26.92;17.83;;;;;;;1.47;100.00;99786.00;5071744;28;20444;-52
2023/12/05 01:15:44;;;;;;;26.02;17.38;;;;;;;1.44;100.00;99791.28;5071221;28;20116;-49
2023/12/05 01:18:12;;;;;;;26.40;18.50;;;;;;;1.45;100.00;99790.38;5070439;28;20045;-53
2023/12/05 01:20:41;;;;;;;26.33;17.77;;;;;;;1.45;100.00;99782.59;5073510;28;20462;-52
2023/12/05 01:23:09;;;;;;;25.73;16.83;;;;;;;1.46;100.00;99792.06;5073401;28;20048;-51
2023/12/05 01:25:37;;;;;;;25.27;17.02;;;;;;;1.47;100.00;99790.31;5073603;28;20488;-50
2023/12/05 01:28:05;;;;;;;25.83;17.58;;;;;;;1.49;100.00;99789.34;5073530;28;20506;-53
2023/12/05 01:30:34;;;;;;;26.38;17.30;;;;;;;1.46;100.00;99786.03;5073480;28;20044;-54
2023/12/05 01:33:03;;;;;;;26.50;17.20;;;;;;;1.44;100.00;99780.09;5072740;28;20336;-51
2023/12/05 01:35:31;;;;;;;28.15;18.05;;;;;;;1.47;100.00;99780.81;5068856;28;20045;-51
2023/12/05 01:37:59;;;;;;;27.52;17.98;;;;;;;1.45;100.00;99774.84;5069853;28;20054;-53
2023/12/05 01:40:28;;;;;;;26.15;17.23;;;;;;;1.47;100.00;99779.94;5069932;28;20056;-52
2023/12/05 01:42:56;;;;;;;27.58;17.58;;;;;;;1.42;100.00;99785.34;5072436;28;20047;-55
2023/12/05 01:45:24;;;;;;;27.38;18.65;;;;;;;1.43;100.00;99787.03;5072608;28;20040;-52
2023/12/05 01:47:55;;;;;;;27.83;18.40;;;;;;;1.46;100.00;99780.84;5070695;28;20495;-52
2023/12/05 01:50:28;;;;;;;30.00;18.42;;;;;;;1.46;100.00;99780.84;5070082;28;20060;-53
2023/12/05 01:53:00;;;;;;;28.80;17.85;;;;;;;1.44;100.00;99778.31;5068737;28;20480;-53
2023/12/05 01:55:29;;;;;;;27.00;18.17;;;;;;;1.43;100.00;99783.59;5071928;28;20117;-54
2023/12/05 01:57:59;;;;;;;26.23;17.60;;;;;;;1.45;100.00;99774.00;5069849;28;20543;-54
2023/12/05 02:00:30;;;;;;;26.77;17.88;;;;;;;1.50;100.00;99772.03;5070073;28;20147;-54
2023/12/05 02:03:00;;;;;;;27.35;18.85;;;;;;;1.47;100.00;99777.34;5068595;28;20048;-54
2023/12/05 02:05:28;;;;;;;28.77;18.95;;;;;;;1.54;100.00;99777.94;5071791;28;20136;-52
2023/12/05 02:07:58;;;;;;;27.40;18.80;;;;;;;1.47;100.00;99782.53;5072060;28;20040;-52
2023/12/05 02:10:26;;;;;;;30.73;19.70;;;;;;;1.45;100.00;99774.00;5067717;28;20040;-53
2023/12/05 02:12:54;;;;;;;27.55;18.27;;;;;;;1.44;100.00;99780.91;5068684;28;20098;-53
2023/12/05 02:15:22;;;;;;;27.73;18.40;;;;;;;1.45;100.00;99781.78;5069246;28;20396;-50
2023/12/05 02:18:15;;;;;;;30.20;19.55;;;;;;;1.40;100.00;99779.38;5071246;28;20090;-53
2023/12/05 02:20:50;;;;;;;28.40;18.85;;;;;;;1.39;100.00;99784.63;5067217;28;20048;-54
2023/12/05 02:23:47;;;;;;;29.63;18.27;;;;;;;1.43;100.00;99784.44;5068849;28;20041;-54
2023/12/05 02:26:24;;;;;;;26.80;17.73;;;;;;;1.46;100.00;99789.47;5069516;28;20040;-52
2023/12/05 02:28:54;;;;;;;27.23;18.40;;;;;;;1.47;100.00;99783.41;5071673;28;20036;-50
2023/12/05 02:31:22;;;;;;;29.05;18.80;;;;;;;1.47;100.00;99783.41;5071898;28;20066;-48
2023/12/05 02:33:51;;;;;;;28.65;18.90;;;;;;;1.47;100.00;99782.53;5069821;28;20063;-46
2023/12/05 02:36:24;;;;;;;28.05;19.27;;;;;;;1.46;100.00;99781.72;5071764;28;20105;-47
2023/12/05 02:39:05;;;;;;;29.85;20.00;;;;;;;1.42;100.00;99780.16;5069607;28;20040;-47
2023/12/05 02:41:40;;;;;;;29.60;18.95;;;;;;;1.46;100.00;99783.44;5066426;28;20055;-48
2023/12/05 02:44:13;;;;;;;27.88;18.25;;;;;;;1.48;100.00;99771.28;5068614;28;20053;-47
2023/12/05 02:46:42;;;;;;;28.48;19.10;;;;;;;1.45;100.00;99769.66;5066665;28;20041;-48
2023/12/05 02:49:11;;;;;;;34.30;20.25;;;;;;;1.45;100.00;99780.03;5068400;28;20119;-46
2023/12/05 02:51:39;;;;;;;27.35;18.48;;;;;;;1.47;100.00;99773.03;5067828;28;20514;-49
2023/12/05 02:54:07;;;;;;;27.52;18.52;;;;;;;1.49;100.00;99772.97;5071389;28;20119;-51
2023/12/05 02:56:36;;;;;;;29.05;18.98;;;;;;;1.50;100.00;99767.72;5071007;28;20499;-48
2023/12/05 02:59:04;;;;;;;27.13;18.35;;;;;;;1.50;100.00;99774.63;5070959;28;20124;-49
2023/12/05 03:01:39;;;;;;;31.80;19.52;;;;;;;1.46;100.00;99781.72;5071373;28;20052;-48
2023/12/05 03:04:08;;;;;;;29.13;18.52;;;;;;;1.48;100.00;99779.03;5069122;28;20434;-47
2023/12/05 03:06:36;;;;;;;25.90;17.15;;;;;;;1.51;100.00;99771.13;5071491;28;20109;-45
2023/12/05 03:09:07;;;;;;;27.92;18.30;;;;;;;1.43;100.00;99779.25;5071789;28;20434;-46
2023/12/05 03:11:35;;;;;;;28.70;17.92;;;;;;;1.48;100.00;99772.09;5071328;28;20060;-47
2023/12/05 03:14:03;;;;;;;29.92;18.30;;;;;;;1.48;100.00;99772.09;5069846;28;20139;-49
2023/12/05 03:16:33;;;;;;;27.30;17.00;;;;;;;1.45;100.00;99779.19;5071352;28;20052;-50
2023/12/05 03:19:02;;;;;;;30.67;19.02;;;;;;;1.46;100.00;99771.34;5071409;28;20109;-48
2023/12/05 03:21:31;;;;;;;29.98;18.48;;;;;;;1.46;100.00;99770.47;5071285;28;20393;-46
2023/12/05 03:23:59;;;;;;;29.48;18.15;;;;;;;1.41;100.00;99768.09;5071310;28;20037;-46
2023/12/05 03:26:27;;;;;;;29.50;17.90;;;;;;;1.39;100.00;99764.75;5071283;28;21911;-46
2023/12/05 03:28:55;;;;;;;29.15;18.08;;;;;;;1.39;100.00;99764.75;5071105;28;20036;-47
2023/12/05 03:31:23;;;;;;;25.60;17.38;;;;;;;1.38;100.00;99768.25;5071304;28;20056;-48
2023/12/05 03:33:51;;;;;;;27.67;17.65;;;;;;;1.37;100.00;99761.38;5069598;28;20131;-45
2023/12/05 03:36:21;;;;;;;28.92;17.83;;;;;;;1.36;100.00;99762.28;5071304;28;20106;-47
2023/12/05 03:38:49;;;;;;;27.90;17.63;;;;;;;1.35;100.00;99758.03;5071058;28;20064;-46
2023/12/05 03:41:17;;;;;;;29.33;17.75;;;;;;;1.39;100.00;99759.56;5070791;28;20189;-47
2023/12/05 03:43:45;;;;;;;30.35;18.83;;;;;;;1.35;100.00;99753.69;5068391;28;20467;-47
2023/12/05 03:46:13;;;;;;;29.35;17.58;;;;;;;1.35;100.00;99752.84;5070936;28;20047;-48
2023/12/05 03:48:43;;;;;;;30.50;19.38;;;;;;;1.32;100.00;99755.56;5068784;28;20046;-48
2023/12/05 03:51:11;;;;;;;28.05;16.95;;;;;;;1.31;100.00;99753.88;5068586;28;20054;-51
2023/12/05 03:53:41;;;;;;;26.85;17.63;;;;;;;1.29;100.00;99763.47;5070751;28;20399;-46
2023/12/05 03:56:09;;;;;;;28.88;17.60;;;;;;;1.35;100.00;99748.50;5070285;28;20504;-49
2023/12/05 03:58:37;;;;;;;29.42;17.77;;;;;;;1.33;100.00;99749.47;5070486;28;20059;-48
2023/12/05 04:01:06;;;;;;;32.00;19.33;;;;;;;1.31;100.00;99751.28;5071877;28;20051;-48
2023/12/05 04:03:35;;;;;;;31.02;19.67;;;;;;;1.30;100.00;99754.78;5070633;28;20055;-46
2023/12/05 04:06:04;;;;;;;29.52;18.55;;;;;;;1.33;100.00;99749.47;5070989;28;20048;-46
2023/12/05 04:08:32;;;;;;;26.98;17.40;;;;;;;1.33;100.00;99765.84;5071415;28;20044;-48
2023/12/05 04:11:01;;;;;;;27.88;17.35;;;;;;;1.36;100.00;99764.88;5072306;28;20068;-49
2023/12/05 04:13:29;;;;;;;28.35;17.80;;;;;;;1.31;100.00;99762.50;5075153;28;20048;-49
2023/12/05 04:15:58;;;;;;;26.90;17.80;;;;;;;1.32;100.00;99764.19;5075690;28;20037;-48
2023/12/05 04:18:29;;;;;;;28.60;18.40;;;;;;;1.30;100.00;99765.16;5074851;28;20047;-48
2023/12/05 04:20:57;;;;;;;28.63;18.75;;;;;;;1.33;100.00;99773.63;5074574;28;20068;-47
2023/12/05 04:23:25;;;;;;;28.10;17.13;;;;;;;1.33;100.00;99765.00;5074626;28;20118;-47
2023/12/05 04:25:54;;;;;;;29.80;18.25;;;;;;;1.28;100.00;99767.81;5074556;28;20047;-49
2023/12/05 04:28:23;;;;;;;27.92;17.88;;;;;;;1.30;100.00;99770.34;5072633;28;20033;-45
2023/12/05 04:30:52;;;;;;;30.13;18.85;;;;;;;1.27;100.00;99767.88;5071264;28;20048;-46
2023/12/05 04:33:20;;;;;;;30.85;19.77;;;;;;;1.29;100.00;99768.66;5073521;28;20064;-47
2023/12/05 04:35:48;;;;;;;31.65;18.13;;;;;;;1.34;100.00;99777.06;5074188;28;20120;-47
2023/12/05 04:38:16;;;;;;;29.67;18.15;;;;;;;1.37;100.00;99776.94;5072891;28;20040;-48
2023/12/05 04:40:44;;;;;;;30.90;17.98;;;;;;;1.35;100.00;99771.81;5073782;28;20109;-47
2023/12/05 04:43:13;;;;;;;29.98;18.33;;;;;;;1.35;100.00;99771.81;5073971;28;20051;-46
2023/12/05 04:45:42;;;;;;;30.30;18.35;;;;;;;1.30;100.00;99775.53;5074225;28;20052;-45
2023/12/05 04:48:13;;;;;;;32.28;18.05;;;;;;;1.32;100.00;99774.56;5073807;28;20041;-49
2023/12/05 04:50:41;;;;;;;32.40;18.42;;;;;;;1.35;100.00;99784.78;5071545;28;20448;-47
2023/12/05 04:53:09;;;;;;;30.90;17.50;;;;;;;1.39;100.00;99785.50;5074284;28;20050;-47
2023/12/05 04:55:37;;;;;;;33.08;20.08;;;;;;;1.36;100.00;99780.41;5073848;28;20102;-48
2023/12/05 04:58:05;;;;;;;28.52;17.65;;;;;;;1.39;100.00;99788.09;5071378;28;20040;-46
2023/12/05 05:00:34;;;;;;;31.35;18.65;;;;;;;1.35;100.00;99787.38;5074272;28;20094;-47
2023/12/05 05:03:05;;;;;;;27.30;17.23;;;;;;;1.34;100.00;99787.44;5071196;28;20522;-46
2023/12/05 05:05:33;;;;;;;30.48;18.50;;;;;;;1.37;100.00;99784.69;5068747;28;20527;-46
2023/12/05 05:08:01;;;;;;;28.15;17.60;;;;;;;1.45;100.00;99785.19;5072899;28;20123;-52
2023/12/05 05:10:30;;;;;;;27.55;17.30;;;;;;;1.38;100.00;99786.38;5073723;28;20052;-46
2023/12/05 05:12:58;;;;;;;29.95;18.10;;;;;;;1.40;100.00;99786.31;5073283;28;20040;-49
2023/12/05 05:15:26;;;;;;;27.17;16.75;;;;;;;1.40;100.00;99792.31;5069796;28;20053;-47
2023/12/05 05:17:54;;;;;;;29.77;18.33;;;;;;;1.46;100.00;99792.06;5069485;28;20068;-46
2023/12/05 05:20:23;;;;;;;26.92;16.67;;;;;;;1.37;100.00;99792.47;5070937;28;20086;-47
2023/12/05 05:22:52;;;;;;;27.98;17.63;;;;;;;1.39;100.00;99789.81;5073497;28;20052;-47
2023/12/05 05:25:20;;;;;;;28.05;17.42;;;;;;;1.37;100.00;99791.66;5074510;28;20143;-46
2023/12/05 05:27:48;;;;;;;28.75;16.75;;;;;;;1.38;100.00;99793.31;5074203;28;20495;-45
2023/12/05 05:30:16;;;;;;;30.10;17.13;;;;;;;1.35;100.00;99794.31;5074401;28;20480;-45
2023/12/05 05:32:45;;;;;;;26.33;16.75;;;;;;;1.34;100.00;99792.63;5074221;28;20052;-46
2023/12/05 05:35:13;;;;;;;30.38;18.25;;;;;;;1.34;100.00;99792.63;5074306;28;20041;-47
2023/12/05 05:37:43;;;;;;;27.77;16.75;;;;;;;1.29;100.00;99799.75;5073791;28;20044;-47
2023/12/05 05:40:13;;;;;;;28.60;17.38;;;;;;;1.30;100.00;99806.59;5072624;28;20139;-45
2023/12/05 05:42:41;;;;;;;30.38;19.20;;;;;;;1.26;100.00;99799.88;5072183;28;20052;-49
2023/12/05 05:45:11;;;;;;;30.13;17.83;;;;;;;1.26;100.00;99802.47;5070917;28;20041;-48
2023/12/05 05:47:39;;;;;;;30.83;18.45;;;;;;;1.29;100.00;99804.91;5071400;28;20047;-46
2023/12/05 05:50:08;;;;;;;29.33;18.45;;;;;;;1.26;100.00;99805.88;5072952;28;20636;-46
2023/12/05 05:52:36;;;;;;;31.90;19.17;;;;;;;1.26;100.00;99802.47;5070303;28;20403;-48
2023/12/05 05:55:09;;;;;;;28.75;17.80;;;;;;;1.23;100.00;99816.41;5068781;28;20762;-49
2023/12/05 05:57:40;;;;;;;28.40;16.35;;;;;;;1.24;100.00;99809.44;5070727;28;20380;-46
2023/12/05 06:00:11;;;;;;;30.73;18.63;;;;;;;1.25;100.00;99805.97;5072708;28;20427;-46
2023/12/05 06:02:40;;;;;;;28.60;17.23;;;;;;;1.26;100.00;99810.25;5070372;28;20495;-46
2023/12/05 06:05:08;;;;;;;29.95;17.77;;;;;;;1.26;100.00;99807.66;5072720;28;20450;-45
2023/12/05 06:07:37;;;;;;;28.35;17.30;;;;;;;1.26;100.00;99807.66;5072530;28;20484;-47
2023/12/05 06:10:06;;;;;;;27.80;17.40;;;;;;;1.23;100.00;99805.16;5071215;28;20040;-46
2023/12/05 06:12:36;;;;;;;28.60;17.48;;;;;;;1.22;100.00;99804.34;5072481;28;20098;-47
2023/12/05 06:15:05;;;;;;;28.42;17.48;;;;;;;1.25;100.00;99805.97;5072510;28;20032;-47
2023/12/05 06:17:33;;;;;;;27.88;17.83;;;;;;;1.24;100.00;99812.91;5072173;28;20478;-48
2023/12/05 06:20:04;;;;;;;29.40;17.70;;;;;;;1.26;100.00;99810.25;5072118;28;20490;-46
2023/12/05 06:22:33;;;;;;;27.47;17.70;;;;;;;1.29;100.00;99810.94;5073018;28;20468;-46
2023/12/05 06:25:01;;;;;;;26.02;17.27;;;;;;;1.33;100.00;99809.06;5071624;28;20618;-49
2023/12/05 06:27:29;;;;;;;26.60;16.58;;;;;;;1.34;100.00;99819.34;5071579;28;20043;-50
2023/12/05 06:29:59;;;;;;;27.67;17.20;;;;;;;1.29;100.00;99812.69;5071562;28;20052;-49
2023/12/05 06:32:39;;;;;;;26.58;16.73;;;;;;;1.29;100.00;99817.88;5070318;28;20049;-47
2023/12/05 06:35:10;;;;;;;26.75;17.70;;;;;;;1.29;100.00;99817.88;5071945;28;20519;-49
2023/12/05 06:37:38;;;;;;;30.38;18.02;;;;;;;1.28;100.00;99822.22;5071829;28;20063;-48
2023/12/05 06:40:08;;;;;;;28.95;17.30;;;;;;;1.26;100.00;99825.78;5072284;28;20047;-47
2023/12/05 06:42:36;;;;;;;27.20;16.33;;;;;;;1.26;100.00;99826.63;5071596;28;20056;-48
2023/12/05 06:45:06;;;;;;;30.13;17.98;;;;;;;1.23;100.00;99826.75;5071886;28;20048;-46
2023/12/05 06:47:35;;;;;;;29.85;19.13;;;;;;;1.24;100.00;99828.44;5071402;28;20055;-46
2023/12/05 06:50:05;;;;;;;31.15;18.95;;;;;;;1.27;100.00;99832.63;5071540;28;20490;-47
2023/12/05 06:52:33;;;;;;;31.15;17.88;;;;;;;1.22;100.00;99835.41;5070401;28;20609;-48
2023/12/05 06:55:01;;;;;;;30.17;18.58;;;;;;;1.28;100.00;99839.50;5071135;28;21170;-48
2023/12/05 06:57:29;;;;;;;31.65;19.83;;;;;;;1.28;100.00;99845.53;5069924;28;20045;-47
2023/12/05 06:59:57;;;;;;;32.65;18.65;;;;;;;1.32;100.00;99846.22;5072110;28;20063;-49
2023/12/05 07:02:28;;;;;;;30.35;19.10;;;;;;;1.24;100.00;99846.56;5072311;28;20048;-46
2023/12/05 07:04:57;;;;;;;31.27;19.13;;;;;;;1.25;100.00;99853.41;5072285;28;20127;-48
2023/12/05 07:07:29;;;;;;;31.35;19.17;;;;;;;1.27;100.00;99858.53;5072355;28;20377;-47
2023/12/05 07:09:57;;;;;;;27.60;17.65;;;;;;;1.29;100.00;99864.50;5072145;28;20048;-46
2023/12/05 07:12:25;;;;;;;28.00;17.58;;;;;;;1.28;100.00;99866.25;5072378;28;20141;-46
2023/12/05 07:14:53;;;;;;;30.88;17.98;;;;;;;1.32;100.00;99866.97;5072154;28;20061;-47
2023/12/05 07:17:22;;;;;;;30.40;18.67;;;;;;;1.34;100.00;99865.16;5072291;28;20044;-47
2023/12/05 07:19:51;;;;;;;31.33;18.55;;;;;;;1.33;100.00;99868.66;5072115;28;20127;-48
2023/12/05 07:22:20;;;;;;;29.77;17.77;;;;;;;1.27;100.00;99866.31;5072219;28;20168;-47
2023/12/05 07:24:49;;;;;;;29.13;18.15;;;;;;;1.27;100.00;99861.97;5072292;28;20560;-46
2023/12/05 07:27:18;;;;;;;32.53;19.30;;;;;;;1.28;100.00;99874.03;5072307;28;20040;-48
2023/12/05 07:29:46;;;;;;;32.28;19.17;;;;;;;1.29;100.00;99878.28;5072131;28;20564;-46
2023/12/05 07:32:14;;;;;;;33.72;19.23;;;;;;;1.28;100.00;99878.34;5072317;28;20048;-47
2023/12/05 07:34:43;;;;;;;31.92;18.73;;;;;;;1.26;100.00;99883.59;5071972;28;20048;-48
2023/12/05 07:37:16;;;;;;;30.17;17.35;;;;;;;1.31;100.00;99891.19;5072308;28;20124;-48
2023/12/05 07:39:47;;;;;;;28.45;17.83;;;;;;;1.32;100.00;99891.13;5070831;28;20443;-45
2023/12/05 07:42:15;;;;;;;32.28;19.88;;;;;;;1.29;100.00;99888.66;5072109;28;20064;-46
2023/12/05 07:44:43;;;;;;;32.13;19.10;;;;;;;1.27;100.00;99899.97;5071171;28;20041;-50
2023/12/05 07:47:11;;;;;;;33.28;19.30;;;;;;;1.23;100.00;99903.59;5071599;28;20036;-49
2023/12/05 07:49:44;;;;;;;32.97;19.27;;;;;;;1.24;100.00;99900.97;5071782;28;21063;-45
2023/12/05 07:52:16;;;;;;;31.98;19.48;;;;;;;1.30;100.00;99910.25;5071580;28;20076;-48
2023/12/05 07:54:44;;;;;;;32.92;19.90;;;;;;;1.30;100.00;99915.41;5071785;28;20056;-46
2023/12/05 07:57:14;;;;;;;36.40;20.95;;;;;;;1.29;100.00;99919.75;5071727;28;20052;-48
2023/12/05 07:59:43;;;;;;;33.42;20.15;;;;;;;1.25;100.00;99925.97;5071950;28;20040;-46
2023/12/05 08:02:11;;;;;;;34.33;19.75;;;;;;;1.26;100.00;99919.88;5071756;28;20051;-47
2023/12/05 08:04:40;;;;;;;35.10;20.98;;;;;;;1.27;100.00;99923.31;5071679;28;20051;-47
2023/12/05 08:07:08;;;;;;;37.72;20.55;;;;;;;1.25;100.00;99923.38;5071774;28;20041;-47
2023/12/05 08:09:37;;;;;;;34.58;19.90;;;;;;;1.35;100.00;99918.66;5071449;28;20079;-49
2023/12/05 08:12:06;;;;;;;32.90;19.23;;;;;;;1.31;100.00;99922.25;5070208;28;20044;-48
2023/12/05 08:14:35;;;;;;;33.47;19.52;;;;;;;1.30;100.00;99931.78;5071736;28;20052;-49
2023/12/05 08:17:04;;;;;;;34.70;20.90;;;;;;;1.34;100.00;99928.16;5071517;28;20045;-47
2023/12/05 08:19:33;;;;;;;34.22;20.05;;;;;;;1.32;100.00;99929.13;5071510;28;20071;-45
2023/12/05 08:22:01;;;;;;;34.28;20.50;;;;;;;1.34;100.00;99932.53;5071671;28;20507;-47
2023/12/05 08:24:30;;;;;;;35.85;20.75;;;;;;;1.39;100.00;99929.72;5071488;28;20068;-48
2023/12/05 08:27:00;;;;;;;34.20;21.42;;;;;;;1.32;100.00;99934.31;5071234;28;20048;-47
2023/12/05 08:29:32;;;;;;;35.42;20.90;;;;;;;1.32;100.00;99942.97;5070148;28;20047;-46
2023/12/05 08:32:02;;;;;;;34.85;20.73;;;;;;;1.30;100.00;99942.16;5071332;28;20064;-47
2023/12/05 08:34:30;;;;;;;36.80;21.00;;;;;;;1.37;100.00;99942.75;5071601;28;20454;-46
2023/12/05 08:36:58;;;;;;;36.88;20.98;;;;;;;1.31;100.00;99943.84;5071303;28;20094;-45
2023/12/05 08:39:26;;;;;;;33.53;20.85;;;;;;;1.30;100.00;99949.94;5071602;28;20040;-46
2023/12/05 08:41:55;;;;;;;32.83;19.73;;;;;;;1.35;100.00;99952.34;5071139;28;20546;-47
2023/12/05 08:44:24;;;;;;;37.78;20.35;;;;;;;1.33;100.00;99951.56;5070396;28;20076;-49
2023/12/05 08:46:52;;;;;;;34.55;21.15;;;;;;;1.35;100.00;99955.78;5071432;28;20048;-49
2023/12/05 08:49:20;;;;;;;34.38;20.35;;;;;;;1.41;100.00;99952.09;5070027;28;20048;-46
2023/12/05 08:51:49;;;;;;;34.20;19.67;;;;;;;1.38;100.00;99951.34;5071158;28;20056;-47
2023/12/05 08:54:17;;;;;;;34.85;19.83;;;;;;;1.32;100.00;99953.31;5071610;28;20056;-47
2023/12/05 08:56:45;;;;;;;31.67;18.65;;;;;;;1.33;100.00;99946.38;5075047;28;20053;-47
2023/12/05 08:59:14;;;;;;;32.60;19.13;;;;;;;1.33;100.00;99952.38;5074960;28;20496;-46
2023/12/05 09:01:47;;;;;;;33.70;20.77;;;;;;;1.32;100.00;99957.63;5074760;28;20049;-47
2023/12/05 09:04:15;;;;;;;33.55;19.02;;;;;;;1.33;100.00;99962.75;5074869;28;20056;-48
2023/12/05 09:06:44;;;;;;;30.45;18.42;;;;;;;1.36;100.00;99961.78;5074956;28;20515;-55
2023/12/05 09:09:12;;;;;;;31.65;18.73;;;;;;;1.34;100.00;99963.63;5073976;28;20072;-47
2023/12/05 09:11:45;;;;;;;31.55;18.05;;;;;;;1.33;100.00;99961.91;5069891;28;20048;-46
2023/12/05 09:14:13;;;;;;;32.00;19.15;;;;;;;1.41;100.00;99969.38;5071703;28;20056;-55
2023/12/05 09:16:41;;;;;;;30.98;17.95;;;;;;;1.33;100.00;99969.69;5074788;28;20049;-54
2023/12/05 09:19:11;;;;;;;30.55;18.88;;;;;;;1.35;100.00;99976.50;5071589;28;20052;-55
2023/12/05 09:21:39;;;;;;;31.20;19.05;;;;;;;1.35;100.00;99986.88;5070443;28;20037;-53
2023/12/05 09:24:08;;;;;;;31.95;18.33;;;;;;;1.40;100.00;99986.66;5074344;28;20040;-54
2023/12/05 09:26:36;;;;;;;30.20;16.65;;;;;;;1.36;100.00;99987.69;5074297;28;20078;-52
2023/12/05 09:29:04;;;;;;;30.30;17.55;;;;;;;1.33;100.00;99982.66;5072617;28;20041;-50
2023/12/05 09:31:33;;;;;;;29.90;17.00;;;;;;;1.35;100.00;99981.69;5071096;28;20044;-53
2023/12/05 09:34:01;;;;;;;31.05;16.65;;;;;;;1.37;100.00;99991.97;5071617;28;20053;-53
2023/12/05 09:36:31;;;;;;;29.20;16.65;;;;;;;1.39;100.00;99991.91;5074296;28;20090;-53
2023/12/05 09:38:59;;;;;;;28.08;16.10;;;;;;;1.39;100.00;99999.69;5072672;28;20054;-54
2023/12/05 09:41:28;;;;;;;27.52;16.30;;;;;;;1.39;100.00;100000.56;5069203;28;20056;-52
2023/12/05 09:44:00;;;;;;;27.88;16.67;;;;;;;1.42;100.00;100004.75;5072816;28;20056;-53
2023/12/05 09:46:31;;;;;;;;;;;;;;;1.41;100.00;100003.91;5071824;28;20048;-53
2023/12/05 09:49:08;;;;;;;28.13;16.13;;;;;;;1.44;100.00;100005.53;5071792;28;19927;-52
2023/12/05 09:51:38;;;;;;;28.67;16.67;;;;;;;1.42;100.00;100008.19;5073879;28;20052;-52
2023/12/05 09:54:06;;;;;;;26.40;15.88;;;;;;;1.39;100.00;100010.91;5073941;28;20044;-54
2023/12/05 09:56:36;;;;;;;27.88;15.50;;;;;;;1.40;100.00;100017.75;5069262;28;20060;-52
2023/12/05 09:59:05;;;;;;;30.20;18.17;;;;;;;1.43;100.00;100015.06;5070495;28;20060;-53
2023/12/05 10:01:35;;;;;;;27.70;16.52;;;;;;;1.44;100.00;100016.72;5073730;28;20041;-53
2023/12/05 10:04:06;;;;;;;28.13;17.05;;;;;;;1.46;100.00;100017.53;5073702;28;20058;-54
2023/12/05 10:06:39;;;;;;;26.90;16.35;;;;;;;1.44;100.00;100019.31;5071052;28;20052;-55
2023/12/05 10:09:10;;;;;;;27.88;16.08;;;;;;;1.47;100.00;100026.13;5070284;28;20072;-54
2023/12/05 10:11:39;;;;;;;26.17;15.13;;;;;;;1.44;100.00;100021.91;5073347;28;20127;-56
2023/12/05 10:14:08;;;;;;;29.88;16.73;;;;;;;1.46;100.00;100032.22;5073642;28;20528;-54
2023/12/05 10:16:38;;;;;;;29.52;17.33;;;;;;;1.52;100.00;100027.63;5072237;28;20060;-53
2023/12/05 10:19:09;;;;;;;27.55;15.98;;;;;;;1.53;100.00;100031.09;5071872;28;20052;-54
2023/12/05 10:21:39;;;;;;;26.05;15.55;;;;;;;1.44;100.00;100021.09;5069956;28;20477;-53
2023/12/05 10:24:07;;;;;;;28.52;16.20;;;;;;;1.47;100.00;100028.72;5070461;28;20091;-54
2023/12/05 10:26:44;;;;;;;27.52;15.75;;;;;;;1.46;100.00;100030.50;5069305;28;20056;-53
2023/12/05 10:29:13;;;;;;;25.70;16.02;;;;;;;1.43;100.00;100030.63;5069999;28;20052;-53
2023/12/05 10:31:41;;;;;;;28.20;15.57;;;;;;;1.44;100.00;100036.63;5072214;28;20032;-54
2023/12/05 10:34:10;;;;;;;27.67;16.35;;;;;;;1.46;100.00;100034.81;5070874;28;20075;-55
2023/12/05 10:36:39;;;;;;;30.42;15.88;;;;;;;1.47;100.00;100034.78;5070067;28;20127;-55
2023/12/05 10:39:08;;;;;;;29.08;17.05;;;;;;;1.49;100.00;100034.72;5072847;28;20052;-52
2023/12/05 10:41:36;;;;;;;26.70;16.15;;;;;;;1.47;100.00;100044.28;5071092;28;20056;-53
2023/12/05 10:44:05;;;;;;;28.05;16.55;;;;;;;1.45;100.00;100041.75;5072846;28;20048;-53
2023/12/05 10:46:36;;;;;;;28.13;16.85;;;;;;;1.42;100.00;100044.47;5072645;28;20049;-55
2023/12/05 10:49:05;;;;;;;32.85;17.77;;;;;;;1.45;100.00;100044.34;5070045;28;20055;-52
2023/12/05 10:51:34;;;;;;;29.20;17.80;;;;;;;1.50;100.00;100051.91;5069948;28;20043;-53
2023/12/05 10:54:04;;;;;;;29.35;17.10;;;;;;;1.50;100.00;100055.38;5070074;28;20052;-53
2023/12/05 10:56:32;;;;;;;31.52;18.13;;;;;;;1.49;100.00;100060.63;5071213;28;20411;-53
2023/12/05 10:59:01;;;;;;;33.00;17.88;;;;;;;1.51;100.00;100061.38;5072647;28;20032;-54
2023/12/05 11:01:29;;;;;;;30.25;17.67;;;;;;;1.59;100.00;100053.31;5072497;28;20428;-52
2023/12/05 11:04:00;;;;;;;32.72;17.95;;;;;;;1.64;100.00;100060.00;5071371;28;20565;-54
2023/12/05 11:06:29;;;;;;;31.02;17.65;;;;;;;1.67;100.00;100065.06;5072609;28;20059;-52
2023/12/05 11:08:58;;;;;;;31.13;18.33;;;;;;;1.66;100.00;100071.16;5070845;28;20511;-53
2023/12/05 11:11:29;;;;;;;32.42;19.02;;;;;;;1.57;100.00;100070.66;5068324;28;20415;-54
2023/12/05 11:13:59;;;;;;;30.40;17.67;;;;;;;1.62;100.00;100066.16;5070957;28;20123;-54
2023/12/05 11:16:31;;;;;;;33.08;18.77;;;;;;;1.59;100.00;100074.06;5068247;28;20064;-54
2023/12/05 11:19:06;;;;;;;;;;;;;;;1.69;100.00;100077.94;5069980;28;20041;-52
2023/12/05 11:21:46;;;;;;;28.60;17.08;;;;;;;1.72;100.00;100085.63;5072375;28;20000;-54
2023/12/05 11:24:33;;;;;;;32.75;18.60;;;;;;;1.67;100.00;100084.97;5072288;28;20052;-53
2023/12/05 11:27:21;;;;;;;30.90;18.92;;;;;;;1.66;100.00;100085.84;5072539;28;20048;-53